Time;durP1;ratioP1;P1;durP2;ratioP2;P2;SDS_P1;SDS_P2;PMS_P1;PMS_P2;Temp;Humidity;BMP_temperature;BMP_pressure;BME280_temperature;BME280_humidity;BME280_pressure;Samples;Min_cycle;Max_cycle;Signal;HPM_P1;HPM_P2
2023/01/07 00:01:28;;;;;;;;;4.00;2.00;;;;;12.98;100.00;101306.06;5001998;28;45655;-71
2023/01/07 00:03:55;;;;;;;;;2.00;2.00;;;;;12.99;100.00;101306.91;5011464;28;45484;-71
2023/01/07 00:06:26;;;;;;;;;4.00;3.67;;;;;12.96;100.00;101297.16;5003595;28;45374;-71
2023/01/07 00:08:54;;;;;;;;;3.33;3.33;;;;;12.96;100.00;101294.41;5011062;28;47081;-74
2023/01/07 00:11:22;;;;;;;;;2.33;1.67;;;;;12.93;100.00;101297.56;5002957;28;45449;-71
2023/01/07 00:13:49;;;;;;;;;2.33;2.33;;;;;12.91;100.00;101282.34;5006980;28;45764;-72
2023/01/07 00:16:17;;;;;;;;;2.33;2.33;;;;;12.88;100.00;101273.44;4989270;28;47301;-71
2023/01/07 00:18:43;;;;;;;;;3.33;3.33;;;;;12.92;100.00;101267.50;5001354;28;46396;-72
2023/01/07 00:21:12;;;;;;;;;2.67;2.67;;;;;12.91;100.00;101271.34;5003474;28;45472;-72
2023/01/07 00:23:39;;;;;;;;;2.67;1.33;;;;;12.91;100.00;101276.84;5001143;28;45608;-73
2023/01/07 00:26:10;;;;;;;;;1.67;1.67;;;;;12.91;100.00;101268.59;4985045;28;46178;-71
2023/01/07 00:28:38;;;;;;;;;1.67;1.67;;;;;12.92;100.00;101267.50;5008875;28;46093;-71
2023/01/07 00:31:06;;;;;;;;;3.67;2.00;;;;;12.93;100.00;101267.28;5012412;28;45781;-71
2023/01/07 00:33:34;;;;;;;;;4.33;3.00;;;;;12.90;100.00;101256.69;5008954;28;45650;-73
2023/01/07 00:36:08;;;;;;;;;3.33;2.33;;;;;12.91;100.00;101254.81;4990635;28;46817;-72
2023/01/07 00:38:35;;;;;;;;;1.67;1.67;;;;;12.90;100.00;101245.69;4995803;28;47941;-71
2023/01/07 00:41:01;;;;;;;;;2.67;2.00;;;;;12.91;100.00;101252.06;5013602;28;45935;-71
2023/01/07 00:43:26;;;;;;;;;1.67;1.67;;;;;12.88;100.00;101240.41;5004238;28;45412;-72
2023/01/07 00:45:52;;;;;;;;;3.67;3.33;;;;;12.90;100.00;101240.19;5009688;28;45461;-73
2023/01/07 00:48:18;;;;;;;;;2.67;2.67;;;;;12.91;100.00;101243.81;5003957;28;46416;-72
2023/01/07 00:50:46;;;;;;;;;2.33;1.67;;;;;12.88;100.00;101237.66;5009062;28;45319;-72
2023/01/07 00:53:12;;;;;;;;;4.33;3.00;;;;;12.89;100.00;101235.75;5008627;28;45580;-71
2023/01/07 00:55:38;;;;;;;;;3.33;1.00;;;;;12.88;100.00;101225.81;5005733;28;45970;-72
2023/01/07 00:58:04;;;;;;;;;1.67;1.67;;;;;12.91;100.00;101232.78;5012976;28;45875;-71
2023/01/07 01:00:29;;;;;;;;;2.67;2.67;;;;;12.91;100.00;101227.28;5005468;28;45459;-72
2023/01/07 01:02:55;;;;;;;;;2.33;1.67;;;;;12.89;100.00;101222.84;4992462;28;45790;-72
2023/01/07 01:05:21;;;;;;;;;1.33;0.67;;;;;12.89;100.00;101217.31;5006621;28;45802;-71
2023/01/07 01:07:47;;;;;;;;;2.67;2.33;;;;;12.95;100.00;101215.63;5010075;28;46135;-72
2023/01/07 01:10:16;;;;;;;;;3.00;3.00;;;;;12.94;100.00;101208.44;5012254;28;45871;-71
2023/01/07 01:12:43;;;;;;;;;2.00;2.00;;;;;12.93;100.00;101203.13;5013829;28;45391;-71
2023/01/07 01:15:14;;;;;;;;;1.33;1.33;;;;;12.99;100.00;101202.28;5009755;28;45391;-71
2023/01/07 01:17:40;;;;;;;;;1.00;1.00;;;;;12.98;100.00;101217.97;5005098;28;45996;-72
2023/01/07 01:20:16;;;;;;;;;2.00;2.00;;;;;12.96;100.00;101197.19;5028808;23;46912;-83
2023/01/07 01:22:59;;;;;;;;;5.00;2.33;;;;;12.76;100.00;101162.28;4976251;28;45536;-82
2023/01/07 01:25:52;;;;;;;;;1.67;1.67;;;;;12.91;100.00;101180.50;4978330;28;45825;-83
2023/01/07 01:28:40;;;;;;;;;1.67;1.67;;;;;12.70;100.00;101138.38;4960162;28;45673;-83
2023/01/07 01:31:21;;;;;;;;;3.33;2.33;;;;;12.92;100.00;101165.66;4970400;28;45504;-86
2023/01/07 01:34:10;;;;;;;;;1.00;1.00;;;;;12.82;100.00;101155.09;4987007;28;45841;-85
2023/01/07 01:36:48;;;;;;;;;3.00;2.33;;;;;12.99;100.00;101174.75;4988799;28;45779;-86
2023/01/07 01:39:14;;;;;;;;;2.00;0.33;;;;;12.75;100.00;101127.56;4983115;28;45488;-85
2023/01/07 01:42:05;;;;;;;;;2.33;1.33;;;;;12.97;100.00;101158.44;4981210;28;45066;-87
2023/01/07 01:45:35;;;;;;;;;;;;;;;;;;;;;
2023/01/07 01:56:20;;;;;;;;;1.67;1.67;;;;;12.92;100.00;101149.13;4912608;29;45561;-90
2023/01/07 01:59:39;;;;;;;;;;;;;;;;;;;;;
2023/01/07 02:02:59;;;;;;;;;3.67;1.00;;;;;12.89;100.00;101140.25;4831496;29;72532;-83
2023/01/07 02:09:13;;;;;;;;;;;;;;;;;;;;;
2023/01/07 02:19:10;;;;;;;;;4.00;1.67;;;;;12.68;100.00;101104.72;4866640;29;45556;-87
2023/01/07 02:22:37;;;;;;;;;;;;;;;;;;;;;
2023/01/07 02:29:24;;;;;;;;;2.67;2.00;;;;;12.56;100.00;101067.91;4949348;28;45801;-86
2023/01/07 02:32:34;;;;;;;;;1.67;0.67;;;;;12.81;100.00;101104.69;4867145;29;46290;-86
2023/01/07 02:35:57;;;;;;;;;;;;;;;;;;;;;
2023/01/07 02:39:05;;;;;;;;;2.00;2.00;;;;;12.82;100.00;101100.88;4906856;29;68343;-88
2023/01/07 02:42:00;;;;;;;;;;;;;;;;;;;;;
2023/01/07 02:45:32;;;;;;;;;;;;;;;;;;;;;
2023/01/07 02:48:37;;;;;;;;;;;;;;;;;;;;;
2023/01/07 02:51:06;;;;;;;;;0.67;0.67;;;;;12.69;100.00;101070.63;4995967;28;45178;-86
2023/01/07 02:53:54;;;;;;;;;3.00;2.00;;;;;12.63;100.00;101058.56;4997044;28;45445;-89
2023/01/07 02:56:58;;;;;;;;;1.67;1.67;;;;;12.78;100.00;101091.34;4992078;28;45126;-89
2023/01/07 02:59:37;;;;;;;;;1.33;1.33;;;;;12.77;100.00;101088.81;4961653;28;45334;-88
2023/01/07 03:02:52;;;;;;;;;1.00;1.00;;;;;12.74;100.00;101079.09;4980910;28;45499;-85
2023/01/07 03:06:08;;;;;;;;;3.00;3.00;;;;;12.72;100.00;101070.19;4986680;28;45409;-88
2023/01/07 03:09:00;;;;;;;;;2.33;1.33;;;;;12.74;100.00;101068.09;4903590;28;46815;-86
2023/01/07 03:11:38;;;;;;;;;2.33;1.00;;;;;12.56;100.00;101038.50;4988714;28;45317;-87
2023/01/07 03:14:18;;;;;;;;;1.33;1.33;;;;;12.77;100.00;101066.78;4975658;28;45469;-87
2023/01/07 03:16:57;;;;;;;;;1.00;1.00;;;;;12.67;100.00;101050.75;4995235;28;45926;-86
2023/01/07 03:19:34;;;;;;;;;1.00;1.00;;;;;12.45;100.00;101009.72;4981302;28;47236;-85
2023/01/07 03:22:03;;;;;;;;;0.67;0.67;;;;;12.79;100.00;101054.50;4977800;28;45524;-85
2023/01/07 03:24:31;;;;;;;;;2.67;1.33;;;;;12.80;100.00;101058.97;4962639;28;45445;-86
2023/01/07 03:27:02;;;;;;;;;0.67;0.67;;;;;12.69;100.00;101029.34;4982830;28;45047;-85
2023/01/07 03:29:31;;;;;;;;;2.00;2.00;;;;;12.68;100.00;101022.19;4982591;28;45488;-84
2023/01/07 03:32:06;;;;;;;;;1.33;0.33;;;;;12.81;100.00;101035.88;4972853;28;45527;-85
2023/01/07 03:34:33;;;;;;;;;2.00;2.00;;;;;12.57;100.00;100996.16;4964649;28;45537;-84
2023/01/07 03:37:10;;;;;;;;;2.00;0.67;;;;;12.86;100.00;101027.81;4976605;28;45516;-85
2023/01/07 03:39:40;;;;;;;;;2.33;0.67;;;;;12.85;100.00;101025.28;4964186;28;46623;-87
2023/01/07 03:44:53;;;;;;;;;2.67;2.00;;;;;12.92;100.00;101031.63;4983571;28;45432;-85
2023/01/07 03:47:21;;;;;;;;;1.33;0.67;;;;;12.92;100.00;101019.75;4983924;28;45409;-85
2023/01/07 03:49:46;;;;;;;;;1.67;1.67;;;;;12.94;100.00;101014.88;4979963;28;45534;-85
2023/01/07 03:52:32;;;;;;;;;0.00;0.00;;;;;12.91;100.00;101002.41;4968017;28;45833;-88
2023/01/07 03:55:03;;;;;;;;;0.67;0.67;;;;;12.69;100.00;100971.56;4984722;28;45484;-89
2023/01/07 03:57:31;;;;;;;;;2.00;1.00;;;;;12.91;100.00;101009.81;4995972;28;46677;-85
2023/01/07 03:59:57;;;;;;;;;0.67;0.67;;;;;12.70;100.00;100967.75;4975677;28;45655;-86
2023/01/07 04:02:23;;;;;;;;;1.00;1.00;;;;;12.75;100.00;100975.34;4990111;28;45527;-85
2023/01/07 04:04:54;;;;;;;;;1.67;1.67;;;;;12.88;100.00;100995.41;4980344;28;45474;-87
2023/01/07 04:07:27;;;;;;;;;0.67;0.67;;;;;12.88;100.00;100984.41;4997837;28;45201;-88
2023/01/07 04:09:54;;;;;;;;;0.33;0.33;;;;;12.80;100.00;100972.78;4979770;28;45547;-86
2023/01/07 04:12:30;;;;;;;;;0.67;0.67;;;;;12.84;100.00;100968.53;5000219;28;45265;-87
2023/01/07 04:15:01;;;;;;;;;0.00;0.00;;;;;12.69;100.00;100941.28;4994317;28;45208;-87
2023/01/07 04:17:27;;;;;;;;;0.67;0.67;;;;;12.89;100.00;100958.56;4977461;28;44784;-86
2023/01/07 04:19:53;;;;;;;;;0.67;0.67;;;;;12.62;100.00;100927.56;4981636;28;45780;-87
2023/01/07 04:22:32;;;;;;;;;1.67;0.33;;;;;12.84;100.00;100954.78;4995850;28;45343;-87
2023/01/07 04:24:58;;;;;;;;;0.00;0.00;;;;;12.76;100.00;100933.84;4989200;28;45378;-86
2023/01/07 04:27:26;;;;;;;;;2.33;1.00;;;;;12.69;100.00;100914.63;4989241;28;45461;-87
2023/01/07 04:29:54;;;;;;;;;0.00;0.00;;;;;12.58;100.00;100898.81;4987019;28;45601;-87
2023/01/07 04:32:20;;;;;;;;;0.33;0.00;;;;;12.76;100.00;100936.59;4976820;28;45749;-86
2023/01/07 04:34:45;;;;;;;;;1.67;0.67;;;;;12.76;100.00;100917.34;4960936;28;45467;-85
2023/01/07 04:37:11;;;;;;;;;0.00;0.00;;;;;12.71;100.00;100911.66;4982653;28;45382;-84
2023/01/07 04:39:37;;;;;;;;;0.67;0.67;;;;;12.41;100.00;100873.72;4983730;28;45301;-85
2023/01/07 04:42:06;;;;;;;;;0.67;0.33;;;;;12.12;100.00;100851.16;4982532;28;45387;-87
2023/01/07 04:44:35;;;;;;;;;1.33;1.00;;;;;12.18;100.00;100894.31;4996507;28;45501;-88
2023/01/07 04:47:07;;;;;;;;;0.00;0.00;;;;;12.23;100.00;100909.28;4988481;28;45304;-86
2023/01/07 04:49:34;;;;;;;;;1.00;1.00;;;;;11.78;100.00;100825.66;4985263;28;45527;-86
2023/01/07 04:52:00;;;;;;;;;1.00;1.00;;;;;11.88;100.00;100844.44;4984603;28;44770;-89
2023/01/07 04:54:27;;;;;;;;;0.67;0.67;;;;;12.05;100.00;100882.47;4985440;28;45361;-85
2023/01/07 04:56:55;;;;;;;;;1.67;1.67;;;;;11.97;100.00;100867.06;4978000;28;45714;-84
2023/01/07 04:59:21;;;;;;;;;2.33;1.00;;;;;11.76;100.00;100832.41;4998179;28;45372;-85
2023/01/07 05:01:47;;;;;;;;;2.33;1.67;;;;;11.70;100.00;100825.88;4995077;28;45203;-85
2023/01/07 05:04:13;;;;;;;;;1.33;1.00;;;;;11.79;100.00;100846.56;4975585;28;44789;-85
2023/01/07 05:06:40;;;;;;;;;1.00;1.00;;;;;11.53;100.00;100816.41;4990865;28;45369;-86
2023/01/07 05:09:07;;;;;;;;;1.00;1.00;;;;;11.63;100.00;100844.25;4973968;28;46683;-86
2023/01/07 05:11:33;;;;;;;;;1.00;1.00;;;;;11.55;100.00;100839.00;4982542;28;45626;-85
2023/01/07 05:13:59;;;;;;;;;1.00;1.00;;;;;11.25;100.00;100812.00;4993841;28;44681;-85
2023/01/07 05:16:27;;;;;;;;;1.00;1.00;;;;;11.37;100.00;100832.25;4984693;28;47101;-85
2023/01/07 05:18:54;;;;;;;;;2.00;2.00;;;;;11.34;100.00;100838.16;4972671;28;46158;-86
2023/01/07 05:21:20;;;;;;;;;1.00;1.00;;;;;11.13;100.00;100806.28;4985325;28;45472;-85
2023/01/07 05:23:51;;;;;;;;;1.00;1.00;;;;;11.00;100.00;100795.31;4962692;28;45524;-87
2023/01/07 05:26:17;;;;;;;;;3.00;3.00;;;;;11.03;100.00;100809.47;4968494;28;45816;-86
2023/01/07 05:28:44;;;;;;;;;2.00;2.00;;;;;11.12;100.00;100830.16;4989363;28;46162;-86
2023/01/07 05:31:22;;;;;;;;;5.00;3.00;;;;;11.09;100.00;100826.97;4970235;28;45476;-85
2023/01/07 05:33:51;;;;;;;;;2.00;2.00;;;;;10.91;100.00;100808.38;4959868;28;45441;-87
2023/01/07 05:36:18;;;;;;;;;3.00;3.00;;;;;10.85;100.00;100799.09;4983095;28;45433;-86
2023/01/07 05:38:49;;;;;;;;;4.00;4.00;;;;;10.92;100.00;100818.31;4965990;28;45420;-87
2023/01/07 05:41:19;;;;;;;;;2.00;2.00;;;;;10.75;100.00;100782.22;4986470;28;44798;-87
2023/01/07 05:43:44;;;;;;;;;3.67;3.67;;;;;10.87;100.00;100805.22;4970679;28;45612;-86
2023/01/07 05:46:10;;;;;;;;;3.67;3.33;;;;;10.80;100.00;100798.88;5000505;28;45773;-87
2023/01/07 05:48:37;;;;;;;;;4.00;4.00;;;;;10.62;100.00;100787.69;4983777;28;46625;-87
2023/01/07 05:51:03;;;;;;;;;3.00;3.00;;;;;10.56;100.00;100772.91;4993159;28;45771;-86
2023/01/07 05:53:29;;;;;;;;;3.00;3.00;;;;;10.53;100.00;100776.06;4984282;28;45397;-86
2023/01/07 05:55:57;;;;;;;;;3.67;3.67;;;;;10.50;100.00;100784.69;4985954;28;45419;-87
2023/01/07 05:58:27;;;;;;;;;3.67;3.00;;;;;10.49;100.00;100788.50;4979557;28;47268;-86
2023/01/07 06:00:53;;;;;;;;;3.33;3.33;;;;;10.56;100.00;100803.91;4965522;28;44933;-84
2023/01/07 06:03:21;;;;;;;;;4.67;4.00;;;;;10.40;100.00;100785.94;4978947;28;45241;-83
2023/01/07 06:05:49;;;;;;;;;4.00;4.00;;;;;10.55;100.00;100806.84;4984026;28;45938;-83
2023/01/07 06:08:16;;;;;;;;;7.00;4.67;;;;;10.58;100.00;100822.88;4965876;28;46755;-82
2023/01/07 06:10:45;;;;;;;;;3.00;3.00;;;;;10.54;100.00;100821.63;4977884;28;45449;-83
2023/01/07 06:13:10;;;;;;;;;4.00;4.00;;;;;10.42;100.00;100810.41;4977226;28;45778;-83
2023/01/07 06:15:38;;;;;;;;;3.00;3.00;;;;;10.48;100.00;100820.56;4977295;28;45714;-85
2023/01/07 06:18:04;;;;;;;;;2.67;2.67;;;;;10.46;100.00;100819.91;4991125;28;46949;-83
2023/01/07 06:20:33;;;;;;;;;5.00;5.00;;;;;10.35;100.00;100815.88;4971122;28;45457;-82
2023/01/07 06:23:04;;;;;;;;;6.33;5.00;;;;;10.35;100.00;100804.06;4957248;28;45412;-84
2023/01/07 06:25:31;;;;;;;;;3.67;3.33;;;;;10.20;100.00;100788.59;4977856;28;45774;-85
2023/01/07 06:27:58;;;;;;;;;3.00;3.00;;;;;10.28;100.00;100809.47;4989075;28;47147;-84
2023/01/07 06:30:24;;;;;;;;;0.33;0.00;;;;;10.15;100.00;100791.09;4970899;28;45527;-84
2023/01/07 06:33:18;;;;;;;;;4.00;4.00;;;;;10.12;100.00;100790.66;4970451;28;45731;-86
2023/01/07 06:35:47;;;;;;;;;6.67;6.00;;;;;9.95;100.00;100765.50;4977355;28;45942;-84
2023/01/07 06:38:48;;;;;;;;;3.67;3.67;;;;;10.14;100.00;100802.28;4976638;28;45688;-84
2023/01/07 06:41:28;;;;;;;;;7.33;4.00;;;;;9.88;100.00;100762.75;4962618;28;45460;-87
2023/01/07 06:43:57;;;;;;;;;7.67;5.00;;;;;10.05;100.00;100796.94;4981767;28;44799;-85
2023/01/07 06:46:23;;;;;;;;;5.33;4.67;;;;;9.87;100.00;100766.53;4960136;28;45564;-80
2023/01/07 06:48:53;;;;;;;;;3.67;3.67;;;;;9.85;100.00;100763.13;4966028;28;46213;-82
2023/01/07 06:51:19;;;;;;;;;5.67;3.67;;;;;9.88;100.00;100773.72;4966094;28;45878;-82
2023/01/07 06:54:02;;;;;;;;;3.00;2.33;;;;;9.68;100.00;100749.78;4974550;28;45548;-83
2023/01/07 06:56:28;;;;;;;;;6.33;6.00;;;;;9.92;100.00;100777.72;4964761;28;45483;-83
2023/01/07 06:59:00;;;;;;;;;6.33;5.33;;;;;9.87;100.00;100741.88;4956472;28;46890;-84
2023/01/07 07:01:26;;;;;;;;;5.00;4.67;;;;;10.11;100.00;100756.09;4958357;28;45324;-83
2023/01/07 07:03:51;;;;;;;;;4.00;3.00;;;;;10.03;100.00;100736.03;4958280;28;46269;-82
2023/01/07 07:06:19;;;;;;;;;8.00;5.00;;;;;10.22;100.00;100759.09;4979071;28;45260;-83
2023/01/07 07:08:47;;;;;;;;;6.33;4.33;;;;;10.42;100.00;100759.16;4975446;28;45557;-83
2023/01/07 07:11:13;;;;;;;;;4.00;4.00;;;;;10.35;100.00;100746.50;4964743;28;45385;-83
2023/01/07 07:13:39;;;;;;;;;5.00;4.00;;;;;10.40;100.00;100731.13;4973225;28;45630;-84
2023/01/07 07:16:05;;;;;;;;;5.67;4.67;;;;;10.61;100.00;100759.41;4973984;28;45861;-85
2023/01/07 07:18:30;;;;;;;;;3.00;3.00;;;;;10.71;100.00;100762.56;4989204;28;48299;-84
2023/01/07 07:20:58;;;;;;;;;6.00;4.00;;;;;10.72;100.00;100758.78;4979872;28;45451;-86
2023/01/07 07:23:30;;;;;;;;;5.67;4.33;;;;;10.70;100.00;100749.94;4979383;28;45817;-85
2023/01/07 07:25:56;;;;;;;;;6.00;6.00;;;;;10.67;100.00;100735.78;4954877;28;46151;-84
2023/01/07 07:28:21;;;;;;;;;5.67;5.67;;;;;10.59;100.00;100720.38;4974397;28;46715;-83
2023/01/07 07:30:47;;;;;;;;;4.33;4.33;;;;;10.50;100.00;100700.53;4973360;28;45694;-86
2023/01/07 07:33:17;;;;;;;;;3.00;3.00;;;;;10.60;100.00;100713.84;4959609;28;45600;-86
2023/01/07 07:35:51;;;;;;;;;3.33;3.00;;;;;10.65;100.00;100736.00;4973106;28;45370;-80
2023/01/07 07:38:17;;;;;;;;;3.33;3.00;;;;;10.33;100.00;100702.84;4971805;28;47796;-85
2023/01/07 07:40:48;;;;;;;;;5.67;4.00;;;;;10.29;100.00;100711.66;4974577;28;45456;-85
2023/01/07 07:43:34;;;;;;;;;8.00;6.67;;;;;10.17;100.00;100697.72;4974259;28;45531;-85
2023/01/07 07:46:02;;;;;;;;;5.33;4.00;;;;;10.08;100.00;100686.94;4967651;28;45544;-87
2023/01/07 07:55:20;;;;;;;;;3.00;3.00;;;;;10.13;100.00;100726.59;4967961;28;45828;-84
2023/01/07 07:59:03;;;;;;;;;6.67;5.00;;;;;10.07;100.00;100722.75;4967384;28;45468;-83
2023/01/07 08:01:32;;;;;;;;;1.33;1.33;;;;;9.99;100.00;100721.06;4888527;28;46003;-82
2023/01/07 08:04:03;;;;;;;;;5.00;3.67;;;;;10.00;100.00;100710.94;4892311;28;45851;-81
2023/01/07 08:06:38;;;;;;;;;5.00;5.00;;;;;10.08;100.00;100729.94;4928598;28;45680;-82
2023/01/07 08:10:01;;;;;;;;;4.67;4.00;;;;;10.06;100.00;100721.94;4950911;28;45958;-81
2023/01/07 08:12:54;;;;;;;;;6.00;4.67;;;;;10.01;100.00;100710.72;4967996;28;45595;-82
2023/01/07 08:16:00;;;;;;;;;2.33;2.33;;;;;10.05;100.00;100724.88;4931709;28;46853;-82
2023/01/07 08:19:12;;;;;;;;;;;;;;;;;;;;;
2023/01/07 08:22:05;;;;;;;;;5.67;4.33;;;;;10.00;100.00;100705.47;4933792;28;74583;-83
2023/01/07 08:25:13;;;;;;;;;6.00;4.00;;;;;10.17;100.00;100714.16;4933097;28;46089;-82
2023/01/07 08:27:50;;;;;;;;;4.33;4.33;;;;;10.20;100.00;100716.50;4942197;28;45974;-81
2023/01/07 08:30:44;;;;;;;;;5.00;5.00;;;;;9.90;100.00;100657.38;4950725;28;45555;-82
2023/01/07 08:33:24;;;;;;;;;;;;;;;;;;;;;
2023/01/07 08:36:02;;;;;;;;;;;;;;;;;;;;;
2023/01/07 08:38:37;;;;;;;;;4.00;4.00;;;;;10.17;100.00;100640.16;4971238;28;72040;-82
2023/01/07 08:41:06;;;;;;;;;5.67;4.00;;;;;10.29;100.00;100643.97;4971743;28;45555;-82
2023/01/07 08:43:51;;;;;;;;;;;;;;;;;;;;;
2023/01/07 08:46:17;;;;;;;;;4.00;3.00;;;;;10.64;100.00;100676.69;4964471;28;75842;-80
2023/01/07 08:48:43;;;;;;;;;4.67;4.67;;;;;10.59;100.00;100638.09;4970977;28;45571;-83
2023/01/07 08:51:12;;;;;;;;;5.67;4.33;;;;;10.68;100.00;100633.25;4960750;28;45414;-83
2023/01/07 08:53:37;;;;;;;;;5.00;5.00;;;;;10.77;100.00;100627.31;4969614;28;45575;-81
2023/01/07 08:56:04;;;;;;;;;4.00;4.00;;;;;11.20;100.00;100636.13;4971997;28;45507;-84
2023/01/07 08:58:30;;;;;;;;;4.00;4.00;;;;;11.43;100.00;100617.22;4971392;28;45932;-84
2023/01/07 09:01:04;;;;;;;;;5.00;5.00;;;;;11.87;100.00;100630.31;4971082;28;45901;-86
2023/01/07 09:03:50;;;;;;;;;5.00;5.00;;;;;12.34;100.00;100625.38;4969267;28;45494;-82
2023/01/07 09:06:19;;;;;;;;;6.00;4.67;;;;;12.56;100.00;100619.47;4945184;28;47337;-81
2023/01/07 09:08:51;;;;;;;;;3.33;3.33;;;;;12.62;100.00;100580.03;4954071;28;45695;-82
2023/01/07 09:11:18;;;;;;;;;4.67;4.00;;;;;12.68;100.00;100563.50;4970548;28;45757;-83
2023/01/07 09:13:56;;;;;;;;;7.00;5.00;;;;;13.07;100.00;100604.59;4972278;28;45690;-82
2023/01/07 09:16:24;;;;;;;;;6.33;5.00;;;;;13.18;100.00;100606.56;4963773;28;46770;-80
2023/01/07 09:18:50;;;;;;;;;6.00;4.00;;;;;13.01;100.00;100545.75;4961930;28;45453;-80
2023/01/07 09:21:40;;;;;;;;;6.67;5.67;;;;;13.47;100.00;100576.56;4973345;28;45710;-84
2023/01/07 09:25:06;;;;;;;;;;;;;;;;;;;;;
2023/01/07 09:28:01;;;;;;;;;5.00;4.00;;;;;14.15;100.00;100584.69;4967662;28;76456;-83
2023/01/07 09:30:53;;;;;;;;;3.67;3.67;;;;;14.17;100.00;100525.47;4969555;28;45520;-82
2023/01/07 09:33:19;;;;;;;;;6.00;3.33;;;;;14.60;100.00;100573.97;4972244;28;45762;-80
2023/01/07 09:36:26;;;;;;;;;5.00;3.67;;;;;14.25;100.00;100569.25;4978045;28;45531;-83
2023/01/07 09:43:06;;;;;;;;;3.67;3.00;;;;;14.28;100.00;100549.47;4894730;28;45996;-87
2023/01/07 09:49:04;;;;;;;;;5.00;5.00;;;;;13.66;100.00;100536.03;4926919;28;45508;-87
2023/01/07 09:55:16;;;;;;;;;4.33;4.33;;;;;12.97;100.00;100486.72;4921542;28;45608;-87
2023/01/07 10:02:23;;;;;;;;;5.00;5.00;;;;;13.01;100.00;100509.16;4870312;29;45987;-85
2023/01/07 10:05:03;;;;;;;;;5.00;4.00;;;;;13.04;100.00;100523.28;4895983;28;44969;-83
2023/01/07 10:07:56;;;;;;;;;5.33;5.33;;;;;13.02;100.00;100535.59;4919182;28;45364;-80
2023/01/07 10:10:59;;;;;;;;;4.33;4.33;;;;;12.66;100.00;100504.25;4901614;28;45624;-84
2023/01/07 10:14:22;;;;;;;;;4.67;4.67;;;;;12.76;100.00;100536.75;4953264;28;45919;-84
2023/01/07 10:17:34;;;;;;;;;5.67;4.00;;;;;12.60;100.00;100533.50;4970393;28;45517;-86
2023/01/07 10:20:30;;;;;;;;;5.67;4.67;;;;;12.33;100.00;100506.25;4966473;28;45794;-80
2023/01/07 10:23:43;;;;;;;;;5.00;4.00;;;;;12.30;100.00;100522.38;4958737;28;45503;-89
2023/01/07 10:26:52;;;;;;;;;2.33;2.00;;;;;12.22;100.00;100506.19;4965608;28;46040;-86
2023/01/07 10:37:25;;;;;;;;;4.00;4.00;;;;;12.31;100.00;100493.84;4870930;29;45745;-83
2023/01/07 10:40:14;;;;;;;;;4.67;4.33;;;;;12.15;100.00;100443.84;4914830;28;45946;-83
2023/01/07 10:43:22;;;;;;;;;6.00;4.67;;;;;12.58;100.00;100490.81;4953256;28;46769;-84
2023/01/07 10:46:13;;;;;;;;;3.33;3.33;;;;;12.56;100.00;100484.69;4956407;28;45575;-81
2023/01/07 10:49:17;;;;;;;;;4.00;4.00;;;;;12.57;100.00;100484.44;4953150;28;45771;-83
2023/01/07 10:52:13;;;;;;;;;4.00;4.00;;;;;12.49;100.00;100474.59;4949559;28;45767;-83
2023/01/07 10:55:07;;;;;;;;;1.67;1.67;;;;;12.35;100.00;100451.06;4954788;28;45627;-83
2023/01/07 10:57:37;;;;;;;;;4.67;4.33;;;;;12.45;100.00;100465.09;4946861;28;45875;-83
2023/01/07 11:00:34;;;;;;;;;5.00;5.00;;;;;12.11;100.00;100386.78;4953534;28;45570;-83
2023/01/07 11:02:59;;;;;;;;;6.00;5.00;;;;;12.52;100.00;100448.53;4954348;28;45905;-82
2023/01/07 11:05:34;;;;;;;;;5.67;4.67;;;;;12.57;100.00;100456.09;4942242;28;47314;-82
2023/01/07 11:08:02;;;;;;;;;3.00;3.00;;;;;12.59;100.00;100420.94;4941026;28;45425;-84
2023/01/07 11:10:50;;;;;;;;;7.67;5.00;;;;;12.69;100.00;100432.25;4965898;28;45829;-84
2023/01/07 11:13:49;;;;;;;;;6.00;6.00;;;;;12.80;100.00;100428.72;4955392;28;45428;-82
2023/01/07 11:16:22;;;;;;;;;3.33;3.33;;;;;12.98;100.00;100427.00;4949164;28;45748;-84
2023/01/07 11:19:08;;;;;;;;;1.67;1.67;;;;;13.13;100.00;100421.94;4955571;28;46098;-87
2023/01/07 11:21:43;;;;;;;;;4.00;4.00;;;;;13.12;100.00;100400.16;4943992;28;45603;-88
2023/01/07 11:24:18;;;;;;;;;7.67;5.67;;;;;13.32;100.00;100413.59;4959589;28;45925;-88
2023/01/07 11:26:51;;;;;;;;;3.67;3.00;;;;;13.38;100.00;100402.53;4960651;28;47238;-86
2023/01/07 11:29:24;;;;;;;;;5.67;5.67;;;;;13.21;100.00;100349.16;4985654;28;45123;-86
2023/01/07 11:32:01;;;;;;;;;5.33;5.33;;;;;13.19;100.00;100368.69;4978430;28;45522;-85
2023/01/07 11:35:05;;;;;;;;;5.33;3.67;;;;;13.35;100.00;100393.88;4976168;28;45519;-87
2023/01/07 11:37:34;;;;;;;;;4.00;4.00;;;;;13.14;100.00;100364.94;4978019;28;45420;-87
2023/01/07 11:40:22;;;;;;;;;3.33;2.67;;;;;13.19;100.00;100376.09;4963725;28;45878;-84
2023/01/07 11:42:55;;;;;;;;;7.00;5.00;;;;;13.31;100.00;100403.66;4981119;28;46068;-86
2023/01/07 11:45:23;;;;;;;;;5.00;5.00;;;;;13.27;100.00;100394.19;4981602;28;45692;-87
2023/01/07 11:48:21;;;;;;;;;8.67;7.33;;;;;13.23;100.00;100402.94;4973460;28;46523;-84
2023/01/07 11:50:54;;;;;;;;;3.67;3.67;;;;;13.11;100.00;100377.25;4964718;28;45243;-85
2023/01/07 11:53:31;;;;;;;;;7.67;5.67;;;;;13.11;100.00;100374.50;4972520;28;45478;-87
2023/01/07 11:56:19;;;;;;;;;3.33;2.67;;;;;13.09;100.00;100384.91;4958461;28;45788;-85
2023/01/07 11:59:36;;;;;;;;;3.00;3.00;;;;;13.02;100.00;100382.28;4963699;28;47912;-85
2023/01/07 12:02:01;;;;;;;;;4.67;4.67;;;;;12.79;100.00;100343.66;4969077;28;45451;-85
2023/01/07 12:04:36;;;;;;;;;4.33;3.00;;;;;12.84;100.00;100341.91;4962493;28;45601;-84
2023/01/07 12:07:12;;;;;;;;;2.67;2.67;;;;;13.02;100.00;100349.25;4971559;28;45894;-84
2023/01/07 12:09:45;;;;;;;;;9.67;8.00;;;;;13.08;100.00;100347.44;4965725;28;48301;-84
2023/01/07 12:12:32;;;;;;;;;0.00;0.00;;;;;13.17;100.00;100354.31;4973683;28;45997;-83
2023/01/07 12:15:01;;;;;;;;;7.00;5.67;;;;;13.23;100.00;100350.63;4973247;28;45429;-82
2023/01/07 12:17:30;;;;;;;;;8.33;6.33;;;;;13.25;100.00;100347.63;4969422;28;46064;-82
2023/01/07 12:20:50;;;;;;;;;2.33;2.33;;;;;13.28;100.00;100354.56;4967308;28;46721;-81
2023/01/07 12:23:40;;;;;;;;;6.67;5.33;;;;;13.22;100.00;100332.41;4890835;28;45568;-82
2023/01/07 12:26:08;;;;;;;;;4.33;4.33;;;;;13.33;100.00;100349.19;4965110;28;45909;-82
2023/01/07 12:28:57;;;;;;;;;9.00;7.00;;;;;13.39;100.00;100338.06;4961587;28;46189;-83
2023/01/07 12:31:58;;;;;;;;;9.00;9.00;;;;;13.46;100.00;100340.75;4963733;28;45598;-83
2023/01/07 12:34:49;;;;;;;;;5.33;4.67;;;;;13.53;100.00;100333.19;4947555;28;45827;-83
2023/01/07 12:37:26;;;;;;;;;4.67;3.33;;;;;13.56;100.00;100335.47;4970721;28;45547;-85
2023/01/07 12:40:03;;;;;;;;;7.33;4.67;;;;;13.34;100.00;100302.16;4974026;28;45525;-83
2023/01/07 12:42:35;;;;;;;;;6.33;4.33;;;;;13.45;100.00;100313.44;4984969;28;45776;-83
2023/01/07 12:45:12;;;;;;;;;6.33;6.33;;;;;13.40;100.00;100309.47;4969748;28;45780;-84
2023/01/07 12:48:05;;;;;;;;;2.67;2.67;;;;;13.57;100.00;100350.91;4972140;28;45470;-83
2023/01/07 12:50:48;;;;;;;;;3.67;3.67;;;;;13.41;100.00;100308.41;4980199;28;45142;-83
2023/01/07 12:53:25;;;;;;;;;3.00;3.00;;;;;13.44;100.00;100342.88;4974593;28;45591;-85
2023/01/07 12:56:04;;;;;;;;;12.67;11.33;;;;;13.31;100.00;100316.38;4973110;28;45617;-82
2023/01/07 12:58:59;;;;;;;;;8.00;4.00;;;;;13.40;100.00;100325.16;4967491;28;45801;-83
2023/01/07 13:01:54;;;;;;;;;15.33;14.00;;;;;13.35;100.00;100330.53;4963594;28;45630;-82
2023/01/07 13:04:38;;;;;;;;;5.33;5.33;;;;;13.24;100.00;100308.22;4970328;28;45764;-84
2023/01/07 13:07:39;;;;;;;;;6.00;5.00;;;;;13.34;100.00;100323.38;4975931;28;45489;-87
2023/01/07 13:10:16;;;;;;;;;6.00;5.00;;;;;13.21;100.00;100319.69;4966015;28;45544;-86
2023/01/07 13:12:45;;;;;;;;;6.33;6.33;;;;;13.23;100.00;100325.81;4985549;28;47111;-89
2023/01/07 13:15:14;;;;;;;;;5.67;4.00;;;;;13.14;100.00;100313.47;4961779;28;45965;-86
2023/01/07 13:17:40;;;;;;;;;6.00;5.00;;;;;13.00;100.00;100298.25;4962500;28;45598;-87
2023/01/07 13:20:11;;;;;;;;;6.67;4.33;;;;;12.98;100.00;100316.91;4984524;28;45738;-83